createdAt,value
2018-07-17T00:01:56.293Z,63.50
2018-07-17T00:04:24.781Z,63.70
2018-07-17T00:06:53.157Z,64.70
2018-07-17T00:09:21.606Z,62.90
2018-07-17T00:11:50.011Z,62.70
2018-07-17T00:14:18.424Z,63.60
2018-07-17T00:16:46.804Z,63.80
2018-07-17T00:19:15.222Z,64.80
2018-07-17T00:21:43.614Z,65.40
2018-07-17T00:24:11.967Z,66.20
2018-07-17T00:26:40.344Z,67.10
2018-07-17T00:29:08.783Z,67.70
2018-07-17T00:31:37.121Z,68.00
2018-07-17T00:34:05.759Z,69.30
2018-07-17T00:36:34.153Z,70.60
2018-07-17T00:39:02.592Z,70.80
2018-07-17T00:41:30.939Z,71.10
2018-07-17T00:43:59.326Z,71.50
2018-07-17T00:46:27.709Z,72.00
2018-07-17T00:48:56.187Z,72.10
2018-07-17T00:51:24.552Z,71.90
2018-07-17T00:53:59.255Z,72.30
2018-07-17T00:56:27.666Z,72.40
2018-07-17T00:58:56.059Z,72.70
2018-07-17T01:01:30.187Z,72.90
2018-07-17T01:04:03.824Z,73.10
2018-07-17T01:06:37.551Z,73.10
2018-07-17T01:09:12.700Z,73.10
2018-07-17T01:11:46.774Z,73.30
2018-07-17T01:14:22.171Z,73.40
2018-07-17T01:16:50.529Z,73.00
2018-07-17T01:19:18.924Z,73.40
2018-07-17T01:21:47.295Z,73.60
2018-07-17T01:24:15.675Z,73.50
2018-07-17T01:26:44.038Z,74.00
2018-07-17T01:29:12.498Z,73.80
2018-07-17T01:31:40.867Z,73.90
2018-07-17T01:34:09.227Z,73.60
2018-07-17T01:36:37.592Z,73.70
2018-07-17T01:39:10.231Z,73.00
2018-07-17T01:41:38.584Z,73.60
2018-07-17T01:44:07.060Z,73.30
2018-07-17T01:46:35.484Z,72.20
2018-07-17T01:49:03.854Z,72.10
2018-07-17T01:51:32.235Z,71.20
2018-07-17T01:54:00.612Z,70.00
2018-07-17T01:56:28.989Z,70.30
2018-07-17T01:58:57.353Z,70.20
2018-07-17T02:01:25.708Z,70.00
2018-07-17T02:03:54.067Z,70.00
2018-07-17T02:06:22.526Z,71.20
2018-07-17T02:08:50.895Z,70.70
2018-07-17T02:11:19.258Z,69.80
2018-07-17T02:13:47.870Z,70.20
2018-07-17T02:16:22.885Z,69.50
2018-07-17T02:18:51.313Z,69.50
2018-07-17T02:21:19.650Z,71.00
2018-07-17T02:23:48.000Z,69.00
2018-07-17T02:26:16.368Z,69.30
2018-07-17T02:28:44.671Z,69.30
2018-07-17T02:31:13.050Z,69.30
2018-07-17T02:33:41.428Z,70.70
2018-07-17T02:36:09.806Z,69.10
2018-07-17T02:38:38.133Z,69.60
2018-07-17T02:41:06.576Z,68.90
2018-07-17T02:43:34.993Z,68.50
2018-07-17T02:46:03.422Z,70.20
2018-07-17T02:48:31.786Z,68.40
2018-07-17T02:51:00.116Z,68.30
2018-07-17T02:53:28.767Z,68.60
2018-07-17T02:55:57.135Z,69.90
2018-07-17T02:58:25.459Z,69.50
2018-07-17T03:00:53.819Z,68.20
2018-07-17T03:03:22.296Z,68.70
2018-07-17T03:05:50.648Z,69.10
2018-07-17T03:08:19.034Z,69.40
2018-07-17T03:10:47.409Z,69.40
2018-07-17T03:13:15.750Z,69.40
2018-07-17T03:15:44.094Z,68.90
2018-07-17T03:18:12.413Z,69.30
2018-07-17T03:20:40.753Z,70.00
2018-07-17T03:23:09.104Z,69.60
2018-07-17T03:25:37.449Z,69.70
2018-07-17T03:28:06.095Z,70.10
2018-07-17T03:30:34.463Z,70.10
2018-07-17T03:33:02.787Z,69.90
2018-07-17T03:35:31.156Z,71.40
2018-07-17T03:37:59.539Z,70.10
2018-07-17T03:40:27.946Z,70.30
2018-07-17T03:42:56.299Z,70.50
2018-07-17T03:45:24.684Z,70.90
2018-07-17T03:47:53.048Z,71.00
2018-07-17T03:50:21.420Z,71.80
2018-07-17T03:52:49.851Z,71.40
2018-07-17T03:55:18.175Z,71.70
2018-07-17T03:57:46.523Z,72.00
2018-07-17T04:00:14.932Z,72.00
2018-07-17T04:02:43.562Z,72.50
2018-07-17T04:05:11.858Z,72.70
2018-07-17T04:07:40.300Z,73.00
2018-07-17T04:10:08.640Z,73.70
2018-07-17T04:12:37.005Z,73.10
2018-07-17T04:15:05.403Z,73.40
2018-07-17T04:17:33.743Z,72.90
2018-07-17T04:20:02.134Z,73.40
2018-07-17T04:22:30.518Z,72.80
2018-07-17T04:24:58.854Z,73.10
2018-07-17T04:27:27.198Z,72.80
2018-07-17T04:29:55.592Z,73.40
2018-07-17T04:32:23.942Z,73.90
2018-07-17T04:34:52.307Z,73.90
2018-07-17T04:37:20.669Z,74.00
2018-07-17T04:39:49.135Z,74.00
2018-07-17T04:42:17.485Z,74.40
2018-07-17T04:44:45.896Z,74.40
2018-07-17T04:47:14.239Z,75.30
2018-07-17T04:49:42.589Z,74.30
2018-07-17T04:52:10.974Z,74.90
2018-07-17T04:54:39.633Z,75.50
2018-07-17T04:57:08.359Z,75.90
2018-07-17T04:59:36.730Z,75.60
2018-07-17T05:02:05.099Z,75.70
2018-07-17T05:04:33.464Z,76.30
2018-07-17T05:07:01.824Z,76.50
2018-07-17T05:09:30.173Z,77.70
2018-07-17T05:11:58.567Z,78.20
2018-07-17T05:14:26.926Z,78.70
2018-07-17T05:16:55.357Z,78.80
2018-07-17T05:19:23.804Z,79.30
2018-07-17T05:21:52.137Z,79.30
2018-07-17T05:24:20.476Z,80.20
2018-07-17T05:26:48.890Z,80.60
2018-07-17T05:29:17.514Z,81.40
2018-07-17T05:31:45.878Z,81.40
2018-07-17T05:36:48.855Z,81.20
2018-07-17T05:39:17.172Z,82.00
2018-07-17T05:41:45.614Z,83.10
2018-07-17T05:44:14.051Z,83.30
2018-07-17T05:46:42.438Z,83.10
2018-07-17T05:49:10.772Z,83.30
2018-07-17T05:51:39.146Z,83.30
2018-07-17T05:54:07.730Z,83.40
2018-07-17T05:56:36.126Z,83.30
2018-07-17T05:59:07.426Z,83.60
2018-07-17T06:01:35.882Z,83.60
2018-07-17T06:04:04.242Z,83.60
2018-07-17T06:06:32.584Z,82.90
2018-07-17T06:09:01.019Z,82.60
2018-07-17T06:11:29.399Z,82.10
2018-07-17T06:13:57.852Z,81.10
2018-07-17T06:16:26.228Z,80.60
2018-07-17T06:18:54.730Z,79.70
2018-07-17T06:21:25.064Z,78.90
2018-07-17T06:23:53.454Z,78.60
2018-07-17T06:26:21.764Z,78.70
2018-07-17T06:28:50.081Z,78.60
2018-07-17T06:31:18.600Z,78.20
2018-07-17T06:33:46.959Z,78.30
2018-07-17T06:36:15.435Z,77.50
2018-07-17T06:38:43.821Z,77.30
2018-07-17T06:41:12.155Z,77.80
2018-07-17T06:43:40.552Z,76.20
2018-07-17T06:46:08.880Z,75.20
2018-07-17T06:48:37.234Z,74.00
2018-07-17T06:51:05.662Z,74.30
2018-07-17T06:53:34.071Z,74.00
2018-07-17T06:56:02.438Z,73.90
2018-07-17T06:58:30.900Z,74.40
2018-07-17T07:00:59.268Z,74.00
2018-07-17T07:03:27.599Z,72.90
2018-07-17T07:05:56.042Z,72.10
2018-07-17T07:08:24.417Z,71.90
2018-07-17T07:10:53.082Z,72.30
2018-07-17T07:13:21.399Z,71.40
2018-07-17T07:15:49.774Z,70.70
2018-07-17T07:18:18.152Z,71.50
2018-07-17T07:20:46.522Z,71.50
2018-07-17T07:23:14.936Z,70.90
2018-07-17T07:25:43.323Z,70.60
2018-07-17T07:28:11.660Z,70.80
2018-07-17T07:30:40.049Z,70.60
2018-07-17T07:33:08.459Z,70.40
2018-07-17T07:35:36.792Z,69.80
2018-07-17T07:38:05.153Z,70.80
2018-07-17T07:40:33.514Z,70.40
2018-07-17T07:43:01.878Z,70.30
2018-07-17T07:45:30.213Z,70.40
2018-07-17T07:47:58.559Z,69.20
2018-07-17T07:50:26.871Z,69.10
2018-07-17T07:52:55.450Z,69.30
2018-07-17T07:55:23.810Z,68.50
2018-07-17T07:57:52.171Z,67.10
2018-07-17T08:00:20.496Z,67.00
2018-07-17T08:02:49.134Z,66.80
2018-07-17T08:05:17.545Z,66.70
2018-07-17T08:07:45.889Z,66.20
2018-07-17T08:10:14.468Z,65.80
2018-07-17T08:12:42.799Z,65.90
2018-07-17T08:15:11.142Z,65.00
2018-07-17T08:17:39.511Z,64.40
2018-07-17T08:20:07.887Z,64.60
2018-07-17T08:22:36.246Z,65.60
2018-07-17T08:25:04.650Z,66.10
2018-07-17T08:27:33.024Z,65.80
2018-07-17T08:30:01.461Z,65.00
2018-07-17T08:32:29.792Z,65.10
2018-07-17T08:34:58.133Z,65.50
2018-07-17T08:37:26.558Z,65.60
2018-07-17T08:39:54.914Z,65.00
2018-07-17T08:42:23.268Z,65.20
2018-07-17T08:44:51.659Z,64.30
2018-07-17T08:47:19.996Z,64.40
2018-07-17T08:49:48.370Z,63.70
2018-07-17T08:52:16.723Z,62.50
2018-07-17T08:54:46.017Z,62.60
2018-07-17T08:57:14.378Z,60.90
2018-07-17T08:59:42.699Z,60.90
2018-07-17T09:02:11.044Z,61.10
2018-07-17T09:04:39.365Z,58.90
2018-07-17T09:07:07.848Z,58.90
2018-07-17T09:09:36.146Z,58.70
2018-07-17T09:12:04.538Z,58.10
2018-07-17T09:14:32.895Z,57.70
2018-07-17T09:17:01.255Z,58.20
2018-07-17T09:19:29.633Z,57.90
2018-07-17T09:21:57.952Z,57.60
2018-07-17T09:24:26.298Z,57.70
2018-07-17T09:26:54.708Z,57.80
2018-07-17T09:29:23.168Z,57.60
2018-07-17T09:31:51.528Z,57.60
2018-07-17T09:34:19.880Z,56.80
2018-07-17T09:36:48.244Z,57.70
2018-07-17T09:39:16.690Z,58.30
2018-07-17T09:41:45.030Z,58.90
2018-07-17T09:44:13.395Z,58.90
2018-07-17T09:46:41.697Z,58.60
2018-07-17T09:49:10.039Z,58.70
2018-07-17T09:51:38.362Z,58.90
2018-07-17T09:54:06.737Z,57.80
2018-07-17T09:56:35.083Z,58.20
2018-07-17T09:59:03.457Z,57.30
2018-07-17T10:01:37.073Z,58.10
2018-07-17T10:04:05.370Z,58.40
2018-07-17T10:06:33.685Z,58.40
2018-07-17T10:09:01.993Z,59.40
2018-07-17T10:11:30.350Z,60.10
2018-07-17T10:13:58.682Z,59.80
2018-07-17T10:16:27.084Z,60.40
2018-07-17T10:18:55.433Z,59.80
2018-07-17T10:21:23.796Z,59.40
2018-07-17T10:23:52.168Z,59.40
2018-07-17T10:26:20.523Z,59.40
2018-07-17T10:28:48.854Z,58.80
2018-07-17T10:31:17.365Z,58.30
2018-07-17T10:33:45.690Z,59.20
2018-07-17T10:36:14.103Z,57.50
2018-07-17T10:38:42.490Z,57.10
2018-07-17T10:41:10.964Z,57.40
2018-07-17T10:43:39.249Z,57.40
2018-07-17T10:46:07.613Z,56.80
2018-07-17T10:48:37.125Z,57.20
2018-07-17T10:51:05.498Z,58.10
2018-07-17T10:53:33.779Z,57.70
2018-07-17T10:56:02.106Z,59.20
2018-07-17T10:58:30.452Z,57.50
2018-07-17T11:00:58.830Z,57.50
2018-07-17T11:03:27.060Z,56.80
2018-07-17T11:05:56.263Z,55.80
2018-07-17T11:08:24.673Z,56.40
2018-07-17T11:10:52.947Z,55.00
2018-07-17T11:13:21.310Z,55.40
2018-07-17T11:15:49.906Z,54.90
2018-07-17T11:18:18.242Z,56.20
2018-07-17T11:20:46.658Z,56.80
2018-07-17T11:23:15.034Z,56.20
2018-07-17T11:25:43.421Z,57.50
2018-07-17T11:28:12.044Z,57.50
2018-07-17T11:30:40.331Z,55.10
2018-07-17T11:33:08.622Z,54.70
2018-07-17T11:35:37.017Z,54.40
2018-07-17T11:38:05.319Z,54.10
2018-07-17T11:40:33.645Z,55.00
2018-07-17T11:43:02.000Z,53.80
2018-07-17T11:45:30.332Z,51.90
2018-07-17T11:47:58.655Z,52.60
2018-07-17T11:50:26.950Z,51.10
2018-07-17T11:52:56.148Z,51.50
2018-07-17T11:55:24.492Z,51.10
2018-07-17T11:57:52.859Z,51.30
2018-07-17T12:00:21.222Z,49.50
2018-07-17T12:02:49.550Z,51.20
2018-07-17T12:05:24.334Z,50.80
2018-07-17T12:07:52.579Z,50.90
2018-07-17T12:10:21.052Z,51.10
2018-07-17T12:12:49.503Z,51.00
2018-07-17T12:15:17.769Z,50.50
2018-07-17T12:17:46.150Z,51.30
2018-07-17T12:20:14.566Z,52.40
2018-07-17T12:22:42.912Z,51.50
2018-07-17T12:25:11.254Z,51.90
2018-07-17T12:27:39.572Z,51.90
2018-07-17T12:30:08.043Z,50.50
2018-07-17T12:32:36.354Z,51.60
2018-07-17T12:35:04.740Z,52.10
2018-07-17T12:37:35.193Z,52.50
2018-07-17T12:40:03.614Z,53.40
2018-07-17T12:42:31.982Z,52.10
2018-07-17T12:45:00.338Z,51.70
2018-07-17T12:47:29.231Z,50.30
2018-07-17T12:49:57.676Z,50.20
2018-07-17T12:52:25.944Z,50.20
2018-07-17T12:54:54.292Z,48.70
2018-07-17T12:57:22.594Z,47.70
2018-07-17T12:59:51.416Z,47.50
2018-07-17T13:02:19.733Z,47.80
2018-07-17T13:04:48.187Z,48.60
2018-07-17T13:07:16.521Z,49.10
2018-07-17T13:09:45.072Z,50.10
2018-07-17T13:12:13.451Z,50.40
2018-07-17T13:14:41.869Z,51.90
2018-07-17T13:17:10.227Z,52.50
2018-07-17T13:19:38.694Z,52.00
2018-07-17T13:22:07.013Z,51.40
2018-07-17T13:24:35.641Z,51.30
2018-07-17T13:27:03.986Z,52.20
2018-07-17T13:29:32.311Z,51.60
2018-07-17T13:32:00.767Z,52.20
2018-07-17T13:34:29.098Z,52.80
2018-07-17T13:36:57.646Z,54.00
2018-07-17T13:39:26.002Z,53.60
2018-07-17T13:41:54.380Z,54.10
2018-07-17T13:44:22.739Z,53.70
2018-07-17T13:46:51.100Z,53.20
2018-07-17T13:49:19.438Z,53.60
2018-07-17T13:51:47.753Z,53.70
2018-07-17T13:54:16.120Z,54.70
2018-07-17T13:56:44.470Z,53.80
2018-07-17T13:59:12.846Z,54.10
2018-07-17T14:01:41.171Z,53.60
2018-07-17T14:04:09.534Z,53.00
2018-07-17T14:06:37.922Z,51.70
2018-07-17T14:09:07.794Z,50.60
2018-07-17T14:11:36.244Z,52.40
2018-07-17T14:14:04.690Z,54.00
2018-07-17T14:16:33.332Z,52.90
2018-07-17T14:19:01.712Z,52.70
2018-07-17T14:21:30.052Z,51.70
2018-07-17T14:23:58.432Z,48.50
2018-07-17T14:26:26.819Z,47.90
2018-07-17T14:28:55.190Z,49.10
2018-07-17T14:31:23.489Z,48.50
2018-07-17T14:33:52.178Z,48.40
2018-07-17T14:36:20.505Z,48.00
2018-07-17T14:38:49.314Z,47.00
2018-07-17T14:41:17.712Z,48.40
2018-07-17T14:43:46.051Z,48.80
2018-07-17T14:46:14.403Z,47.80
2018-07-17T14:48:42.807Z,48.90
2018-07-17T14:51:12.847Z,50.30
2018-07-17T14:53:41.168Z,51.10
2018-07-17T14:56:10.028Z,52.20
2018-07-17T14:58:38.363Z,50.40
2018-07-17T15:01:07.235Z,49.10
2018-07-17T15:03:35.776Z,49.20
2018-07-17T15:06:04.366Z,48.60
2018-07-17T15:08:32.758Z,47.60
2018-07-17T15:11:01.121Z,48.80
2018-07-17T15:13:29.436Z,48.70
2018-07-17T15:15:57.921Z,48.50
2018-07-17T15:18:26.234Z,50.00
2018-07-17T15:20:54.638Z,49.50
2018-07-17T15:23:22.991Z,48.50
2018-07-17T15:25:51.329Z,48.70
2018-07-17T15:28:20.456Z,47.20
2018-07-17T15:30:49.142Z,47.50
2018-07-17T15:33:17.503Z,47.10
2018-07-17T15:35:45.808Z,47.40
2018-07-17T15:38:14.222Z,46.90
2018-07-17T15:40:42.530Z,47.00
2018-07-17T15:43:10.930Z,46.70
2018-07-17T15:45:39.294Z,47.40
2018-07-17T15:48:07.942Z,47.00
2018-07-17T15:50:36.270Z,45.80
2018-07-17T15:53:04.627Z,44.70
2018-07-17T15:55:32.964Z,43.40
2018-07-17T15:58:01.247Z,42.50
2018-07-17T16:00:29.565Z,40.50
2018-07-17T16:02:57.912Z,38.80
2018-07-17T16:05:26.394Z,33.40
2018-07-17T16:07:54.718Z,34.10
2018-07-17T16:10:23.707Z,33.80
2018-07-17T16:12:52.128Z,32.00
2018-07-17T16:15:20.617Z,30.30
2018-07-17T16:17:49.025Z,31.40
2018-07-17T16:20:17.997Z,30.70
2018-07-17T16:22:46.332Z,31.00
2018-07-17T16:25:14.686Z,29.70
2018-07-17T16:27:43.132Z,30.60
2018-07-17T16:30:11.482Z,31.40
2018-07-17T16:32:40.016Z,30.60
2018-07-17T16:35:09.280Z,29.30
2018-07-17T16:37:41.001Z,28.40
2018-07-17T16:40:12.258Z,28.40
2018-07-17T16:42:40.658Z,30.60
2018-07-17T16:45:09.021Z,30.10
2018-07-17T16:47:37.600Z,29.30
2018-07-17T16:50:06.085Z,30.00
2018-07-17T16:52:35.041Z,30.00
2018-07-17T16:55:03.441Z,28.10
2018-07-17T16:57:32.044Z,29.20
2018-07-17T17:00:00.565Z,28.20
2018-07-17T17:02:28.909Z,27.50
2018-07-17T17:04:57.239Z,28.60
2018-07-17T17:07:25.559Z,28.90
2018-07-17T17:09:53.900Z,31.40
2018-07-17T17:12:22.287Z,30.60
2018-07-17T17:17:41.369Z,28.90
2018-07-17T17:20:09.879Z,28.30
2018-07-17T17:22:38.264Z,28.80
2018-07-17T18:04:40.519Z,47.50
2018-07-17T18:07:12.206Z,48.70
2018-07-17T18:09:58.119Z,47.60
2018-07-17T18:15:20.952Z,48.30
2018-07-17T18:18:01.475Z,48.90
2018-07-17T18:20:37.027Z,49.40
2018-07-17T18:23:08.762Z,49.90
2018-07-17T18:25:37.354Z,51.10
2018-07-17T18:28:06.664Z,51.10
2018-07-17T18:30:35.150Z,52.30
2018-07-17T18:33:04.387Z,52.00
2018-07-17T18:35:32.966Z,51.60
2018-07-17T18:38:03.188Z,51.70
2018-07-17T18:40:32.706Z,52.00
2018-07-17T18:43:01.431Z,52.20
2018-07-17T18:45:30.107Z,53.00
2018-07-17T18:47:59.461Z,53.50
2018-07-17T18:50:28.023Z,54.60
2018-07-17T18:52:56.685Z,55.30
2018-07-17T18:55:25.365Z,55.20
2018-07-17T18:57:53.963Z,56.20
2018-07-17T19:00:22.660Z,56.70
2018-07-17T19:02:51.313Z,56.80
2018-07-17T19:05:20.095Z,57.30
2018-07-17T19:07:49.128Z,57.50
2018-07-17T19:10:18.433Z,58.00
2018-07-17T19:12:47.210Z,57.90
2018-07-17T19:15:15.972Z,58.30
2018-07-17T19:17:45.751Z,58.00
2018-07-17T19:20:15.053Z,58.20
2018-07-17T19:22:43.651Z,58.90
2018-07-17T19:25:12.424Z,58.90
2018-07-17T19:27:42.269Z,59.70
2018-07-17T19:30:11.188Z,60.50
2018-07-17T19:32:39.756Z,60.90
2018-07-17T19:35:15.059Z,61.80
2018-07-17T19:37:44.441Z,62.90
2018-07-17T19:40:13.331Z,63.70
2018-07-17T19:42:42.710Z,64.00
2018-07-17T19:45:11.561Z,64.40
2018-07-17T19:47:41.316Z,64.70
2018-07-17T19:50:10.269Z,65.00
2018-07-17T19:52:38.961Z,65.20
2018-07-17T19:55:07.536Z,65.40
2018-07-17T19:57:35.974Z,65.80
2018-07-17T20:00:04.947Z,66.10
2018-07-17T20:02:33.312Z,66.30
2018-07-17T20:05:01.737Z,66.80
2018-07-17T20:07:30.367Z,66.90
2018-07-17T20:09:58.823Z,66.70
2018-07-17T20:12:27.471Z,66.80
2018-07-17T20:14:55.942Z,67.50
2018-07-17T20:17:24.318Z,67.90
2018-07-17T20:19:52.731Z,68.00
2018-07-17T20:22:21.165Z,68.20
2018-07-17T20:24:49.552Z,68.30
2018-07-17T20:27:17.889Z,68.40
2018-07-17T20:29:46.709Z,68.60
2018-07-17T20:32:15.098Z,68.70
2018-07-17T20:34:43.522Z,69.30
2018-07-17T20:37:11.885Z,67.80
2018-07-17T20:39:40.261Z,67.10
2018-07-17T20:42:09.371Z,67.30
2018-07-17T20:44:37.698Z,67.00
2018-07-17T20:47:06.325Z,66.80
2018-07-17T20:49:34.678Z,67.60
2018-07-17T20:52:03.147Z,66.70
2018-07-17T20:54:31.595Z,66.80
2018-07-17T20:57:04.671Z,66.90
2018-07-17T20:59:33.111Z,67.10
2018-07-17T21:02:01.498Z,69.00
2018-07-17T21:04:31.870Z,69.40
2018-07-17T21:07:01.229Z,69.40
2018-07-17T21:09:29.597Z,69.50
2018-07-17T21:12:02.177Z,68.30
2018-07-17T21:14:30.581Z,68.70
2018-07-17T21:16:58.889Z,66.40
2018-07-17T21:19:27.208Z,67.80
2018-07-17T21:21:58.619Z,69.20
2018-07-17T21:24:28.170Z,70.60
2018-07-17T21:26:58.031Z,69.70
2018-07-17T21:29:26.559Z,67.20
2018-07-17T21:31:54.963Z,68.70
2018-07-17T21:34:23.425Z,70.10
2018-07-17T21:36:51.805Z,71.10
2018-07-17T21:39:20.270Z,72.00
2018-07-17T21:41:48.691Z,72.70
2018-07-17T21:44:17.080Z,73.10
2018-07-17T21:46:45.461Z,74.10
2018-07-17T21:49:13.961Z,73.80
2018-07-17T21:51:42.332Z,74.40
2018-07-17T21:54:10.718Z,74.50
2018-07-17T21:56:39.124Z,74.50
2018-07-17T21:59:07.510Z,74.70
2018-07-17T22:01:37.223Z,74.80
2018-07-17T22:04:05.821Z,75.10
2018-07-17T22:06:34.236Z,75.20
2018-07-17T22:09:02.762Z,75.70
2018-07-17T22:11:31.159Z,76.10
2018-07-17T22:13:59.610Z,76.30
2018-07-17T22:16:28.018Z,76.40
2018-07-17T22:18:56.601Z,76.80
2018-07-17T22:21:25.134Z,77.10
2018-07-17T22:23:53.470Z,76.80
2018-07-17T22:26:21.851Z,76.70
2018-07-17T22:28:50.218Z,76.90
2018-07-17T22:31:19.022Z,77.00
2018-07-17T22:33:47.684Z,77.20
2018-07-17T22:36:16.139Z,77.10
2018-07-17T22:38:44.768Z,77.10
2018-07-17T22:41:13.225Z,77.20
2018-07-17T22:43:41.622Z,77.50
2018-07-17T22:46:10.033Z,77.60
2018-07-17T22:48:38.382Z,78.00
2018-07-17T22:51:06.923Z,78.40
2018-07-17T22:53:35.367Z,78.30
2018-07-17T22:56:03.734Z,78.40
2018-07-17T22:58:32.106Z,78.40
2018-07-17T23:01:00.532Z,78.60
2018-07-17T23:03:28.912Z,78.70
2018-07-17T23:05:57.279Z,79.10
2018-07-17T23:08:25.730Z,79.40
2018-07-17T23:10:54.101Z,79.90
2018-07-17T23:13:22.579Z,80.20
2018-07-17T23:15:50.955Z,80.30
2018-07-17T23:18:19.339Z,80.50
2018-07-17T23:20:47.749Z,80.50
2018-07-17T23:23:17.865Z,80.80
2018-07-17T23:25:46.250Z,80.60
2018-07-17T23:28:14.747Z,81.00
2018-07-17T23:30:43.133Z,81.10
2018-07-17T23:33:11.549Z,81.20
2018-07-17T23:35:40.028Z,81.30
2018-07-17T23:38:08.407Z,81.60
2018-07-17T23:40:36.902Z,81.40
2018-07-17T23:43:05.375Z,81.60
2018-07-17T23:45:33.859Z,82.00
2018-07-17T23:48:02.250Z,82.10
2018-07-17T23:50:30.656Z,82.20
2018-07-17T23:52:59.077Z,82.10
2018-07-17T23:55:27.511Z,82.40
2018-07-17T23:57:55.904Z,82.50
